sensor_id;sensor_type;location;lat;lon;timestamp;temperature;humidity
439;DHT22;206;48.782;9.252;2022-07-23T00:02:22;27.90;20.50
439;DHT22;206;48.782;9.252;2022-07-23T00:04:47;27.90;20.40
439;DHT22;206;48.782;9.252;2022-07-23T00:07:13;27.90;20.30
439;DHT22;206;48.782;9.252;2022-07-23T00:09:39;27.80;20.30
439;DHT22;206;48.782;9.252;2022-07-23T00:12:05;27.80;21.10
439;DHT22;206;48.782;9.252;2022-07-23T00:14:30;27.80;20.30
439;DHT22;206;48.782;9.252;2022-07-23T00:16:56;27.80;20.30
439;DHT22;206;48.782;9.252;2022-07-23T00:19:21;27.70;20.40
439;DHT22;206;48.782;9.252;2022-07-23T00:21:47;27.80;20.30
439;DHT22;206;48.782;9.252;2022-07-23T00:24:13;27.80;21.10
439;DHT22;206;48.782;9.252;2022-07-23T00:26:38;27.70;20.20
439;DHT22;206;48.782;9.252;2022-07-23T00:29:04;27.80;20.70
439;DHT22;206;48.782;9.252;2022-07-23T00:31:29;27.80;20.30
439;DHT22;206;48.782;9.252;2022-07-23T00:33:55;27.80;20.70
439;DHT22;206;48.782;9.252;2022-07-23T00:36:26;27.80;20.10
439;DHT22;206;48.782;9.252;2022-07-23T00:38:52;27.70;20.40
439;DHT22;206;48.782;9.252;2022-07-23T00:41:18;27.70;20.20
439;DHT22;206;48.782;9.252;2022-07-23T00:43:44;27.70;20.20
439;DHT22;206;48.782;9.252;2022-07-23T00:46:10;27.60;20.20
439;DHT22;206;48.782;9.252;2022-07-23T00:48:35;27.70;21.80
439;DHT22;206;48.782;9.252;2022-07-23T00:51:01;27.60;22.70
439;DHT22;206;48.782;9.252;2022-07-23T00:53:27;27.60;22.90
439;DHT22;206;48.782;9.252;2022-07-23T00:55:53;27.60;23.10
439;DHT22;206;48.782;9.252;2022-07-23T00:58:19;27.60;23.40
439;DHT22;206;48.782;9.252;2022-07-23T01:00:45;27.50;23.70
439;DHT22;206;48.782;9.252;2022-07-23T01:03:11;27.50;23.90
439;DHT22;206;48.782;9.252;2022-07-23T01:05:37;27.50;23.60
439;DHT22;206;48.782;9.252;2022-07-23T01:08:03;27.50;24.00
439;DHT22;206;48.782;9.252;2022-07-23T01:10:29;27.50;23.60
439;DHT22;206;48.782;9.252;2022-07-23T01:13:06;27.40;23.60
439;DHT22;206;48.782;9.252;2022-07-23T01:15:33;27.30;23.60
439;DHT22;206;48.782;9.252;2022-07-23T01:17:59;27.30;23.80
439;DHT22;206;48.782;9.252;2022-07-23T01:20:25;27.30;23.80
439;DHT22;206;48.782;9.252;2022-07-23T01:22:52;27.30;23.50
439;DHT22;206;48.782;9.252;2022-07-23T01:25:18;27.20;22.90
439;DHT22;206;48.782;9.252;2022-07-23T01:27:43;27.20;22.50
439;DHT22;206;48.782;9.252;2022-07-23T01:30:09;27.20;22.20
439;DHT22;206;48.782;9.252;2022-07-23T01:32:35;27.20;22.60
439;DHT22;206;48.782;9.252;2022-07-23T01:35:01;27.20;22.30
439;DHT22;206;48.782;9.252;2022-07-23T01:37:26;27.20;21.80
439;DHT22;206;48.782;9.252;2022-07-23T01:39:52;27.10;22.10
439;DHT22;206;48.782;9.252;2022-07-23T01:42:17;27.10;22.10
439;DHT22;206;48.782;9.252;2022-07-23T01:44:43;27.10;21.90
439;DHT22;206;48.782;9.252;2022-07-23T01:47:09;27.00;22.00
439;DHT22;206;48.782;9.252;2022-07-23T01:49:34;27.00;22.10
439;DHT22;206;48.782;9.252;2022-07-23T01:52:00;27.00;22.00
439;DHT22;206;48.782;9.252;2022-07-23T01:54:30;27.00;23.00
439;DHT22;206;48.782;9.252;2022-07-23T01:56:56;27.00;23.30
439;DHT22;206;48.782;9.252;2022-07-23T01:59:22;27.00;23.70
439;DHT22;206;48.782;9.252;2022-07-23T02:01:48;27.00;23.10
439;DHT22;206;48.782;9.252;2022-07-23T02:04:19;27.00;22.40
439;DHT22;206;48.782;9.252;2022-07-23T02:06:46;27.00;22.50
439;DHT22;206;48.782;9.252;2022-07-23T02:09:12;27.00;22.40
439;DHT22;206;48.782;9.252;2022-07-23T02:11:37;27.00;22.20
439;DHT22;206;48.782;9.252;2022-07-23T02:14:03;27.00;21.70
439;DHT22;206;48.782;9.252;2022-07-23T02:16:29;26.90;22.20
439;DHT22;206;48.782;9.252;2022-07-23T02:18:54;26.90;22.20
439;DHT22;206;48.782;9.252;2022-07-23T02:21:20;26.80;22.00
439;DHT22;206;48.782;9.252;2022-07-23T02:23:46;26.80;22.20
439;DHT22;206;48.782;9.252;2022-07-23T02:26:11;26.80;22.40
439;DHT22;206;48.782;9.252;2022-07-23T02:28:37;26.80;22.40
439;DHT22;206;48.782;9.252;2022-07-23T02:31:03;26.80;22.40
439;DHT22;206;48.782;9.252;2022-07-23T02:33:29;26.80;22.50
439;DHT22;206;48.782;9.252;2022-07-23T02:35:54;26.80;22.60
439;DHT22;206;48.782;9.252;2022-07-23T02:38:20;26.80;22.70
439;DHT22;206;48.782;9.252;2022-07-23T02:40:45;26.70;22.70
439;DHT22;206;48.782;9.252;2022-07-23T02:43:11;26.70;22.90
439;DHT22;206;48.782;9.252;2022-07-23T02:45:36;26.60;23.10
439;DHT22;206;48.782;9.252;2022-07-23T02:48:02;26.60;23.00
439;DHT22;206;48.782;9.252;2022-07-23T02:50:28;26.60;23.10
439;DHT22;206;48.782;9.252;2022-07-23T02:52:54;26.60;23.40
439;DHT22;206;48.782;9.252;2022-07-23T02:55:19;26.50;23.60
439;DHT22;206;48.782;9.252;2022-07-23T02:57:45;26.50;23.80
439;DHT22;206;48.782;9.252;2022-07-23T03:00:11;26.50;23.90
439;DHT22;206;48.782;9.252;2022-07-23T03:02:36;26.40;24.00
439;DHT22;206;48.782;9.252;2022-07-23T03:05:03;26.40;24.10
439;DHT22;206;48.782;9.252;2022-07-23T03:07:28;26.40;24.40
439;DHT22;206;48.782;9.252;2022-07-23T03:09:54;26.40;24.40
439;DHT22;206;48.782;9.252;2022-07-23T03:12:20;26.40;24.50
439;DHT22;206;48.782;9.252;2022-07-23T03:14:45;26.30;24.60
439;DHT22;206;48.782;9.252;2022-07-23T03:17:11;26.30;24.60
439;DHT22;206;48.782;9.252;2022-07-23T03:19:37;26.20;24.70
439;DHT22;206;48.782;9.252;2022-07-23T03:22:03;26.20;24.80
439;DHT22;206;48.782;9.252;2022-07-23T03:24:29;26.10;25.30
439;DHT22;206;48.782;9.252;2022-07-23T03:27:13;26.10;25.40
439;DHT22;206;48.782;9.252;2022-07-23T03:29:39;26.00;25.70
439;DHT22;206;48.782;9.252;2022-07-23T03:32:04;25.90;25.80
439;DHT22;206;48.782;9.252;2022-07-23T03:34:30;25.80;26.40
439;DHT22;206;48.782;9.252;2022-07-23T03:36:56;25.80;26.30
439;DHT22;206;48.782;9.252;2022-07-23T03:39:21;25.80;26.30
439;DHT22;206;48.782;9.252;2022-07-23T03:41:47;25.80;25.90
439;DHT22;206;48.782;9.252;2022-07-23T03:44:12;25.80;25.60
439;DHT22;206;48.782;9.252;2022-07-23T03:46:38;25.80;26.00
439;DHT22;206;48.782;9.252;2022-07-23T03:49:04;25.80;25.80
439;DHT22;206;48.782;9.252;2022-07-23T03:51:29;25.90;25.80
439;DHT22;206;48.782;9.252;2022-07-23T03:53:55;25.90;25.60
439;DHT22;206;48.782;9.252;2022-07-23T03:56:21;25.90;25.90
439;DHT22;206;48.782;9.252;2022-07-23T03:58:46;25.90;25.70
439;DHT22;206;48.782;9.252;2022-07-23T04:01:12;26.00;25.80
439;DHT22;206;48.782;9.252;2022-07-23T04:03:39;25.90;25.80
439;DHT22;206;48.782;9.252;2022-07-23T04:06:05;26.00;25.70
439;DHT22;206;48.782;9.252;2022-07-23T04:08:31;25.90;25.80
439;DHT22;206;48.782;9.252;2022-07-23T04:10:56;26.00;25.70
439;DHT22;206;48.782;9.252;2022-07-23T04:13:22;26.00;25.60
439;DHT22;206;48.782;9.252;2022-07-23T04:15:47;25.90;25.70
439;DHT22;206;48.782;9.252;2022-07-23T04:18:13;25.90;25.80
439;DHT22;206;48.782;9.252;2022-07-23T04:20:39;25.90;25.80
439;DHT22;206;48.782;9.252;2022-07-23T04:23:04;26.00;25.90
439;DHT22;206;48.782;9.252;2022-07-23T04:25:30;25.90;25.90
439;DHT22;206;48.782;9.252;2022-07-23T04:27:56;25.90;25.90
439;DHT22;206;48.782;9.252;2022-07-23T04:30:21;25.90;25.90
439;DHT22;206;48.782;9.252;2022-07-23T04:32:47;26.00;26.00
439;DHT22;206;48.782;9.252;2022-07-23T04:35:12;26.00;26.00
439;DHT22;206;48.782;9.252;2022-07-23T04:37:38;26.00;25.80
439;DHT22;206;48.782;9.252;2022-07-23T04:40:04;26.00;25.80
439;DHT22;206;48.782;9.252;2022-07-23T04:42:30;26.00;25.80
439;DHT22;206;48.782;9.252;2022-07-23T04:44:55;26.00;25.80
439;DHT22;206;48.782;9.252;2022-07-23T04:47:21;26.10;25.70
439;DHT22;206;48.782;9.252;2022-07-23T04:49:46;26.10;25.80
439;DHT22;206;48.782;9.252;2022-07-23T04:52:12;26.10;26.00
439;DHT22;206;48.782;9.252;2022-07-23T04:54:38;26.00;26.00
439;DHT22;206;48.782;9.252;2022-07-23T04:57:03;26.00;25.80
439;DHT22;206;48.782;9.252;2022-07-23T04:59:29;26.00;25.80
439;DHT22;206;48.782;9.252;2022-07-23T05:01:54;26.00;25.80
439;DHT22;206;48.782;9.252;2022-07-23T05:04:20;26.10;26.10
439;DHT22;206;48.782;9.252;2022-07-23T05:06:46;26.10;26.10
439;DHT22;206;48.782;9.252;2022-07-23T05:09:11;26.20;25.90
439;DHT22;206;48.782;9.252;2022-07-23T05:11:37;26.20;25.90
439;DHT22;206;48.782;9.252;2022-07-23T05:14:02;26.20;25.80
439;DHT22;206;48.782;9.252;2022-07-23T05:16:28;26.20;25.80
439;DHT22;206;48.782;9.252;2022-07-23T05:18:53;26.30;25.70
439;DHT22;206;48.782;9.252;2022-07-23T05:21:19;26.30;25.60
439;DHT22;206;48.782;9.252;2022-07-23T05:23:45;26.40;25.60
439;DHT22;206;48.782;9.252;2022-07-23T05:26:11;26.40;25.50
439;DHT22;206;48.782;9.252;2022-07-23T05:28:36;26.50;25.50
439;DHT22;206;48.782;9.252;2022-07-23T05:31:02;26.50;25.50
439;DHT22;206;48.782;9.252;2022-07-23T05:33:29;26.50;25.70
439;DHT22;206;48.782;9.252;2022-07-23T05:36:00;26.50;25.50
439;DHT22;206;48.782;9.252;2022-07-23T05:38:27;26.50;25.50
439;DHT22;206;48.782;9.252;2022-07-23T05:40:52;26.50;25.50
439;DHT22;206;48.782;9.252;2022-07-23T05:43:18;26.60;25.50
439;DHT22;206;48.782;9.252;2022-07-23T05:45:43;26.60;25.50
439;DHT22;206;48.782;9.252;2022-07-23T05:48:09;26.60;25.60
439;DHT22;206;48.782;9.252;2022-07-23T05:50:35;26.60;25.60
439;DHT22;206;48.782;9.252;2022-07-23T05:53:00;26.60;25.80
439;DHT22;206;48.782;9.252;2022-07-23T05:55:26;26.60;26.00
439;DHT22;206;48.782;9.252;2022-07-23T05:57:57;26.60;26.00
439;DHT22;206;48.782;9.252;2022-07-23T06:00:23;26.60;26.30
439;DHT22;206;48.782;9.252;2022-07-23T06:02:49;26.30;27.00
439;DHT22;206;48.782;9.252;2022-07-23T06:05:16;26.30;26.80
439;DHT22;206;48.782;9.252;2022-07-23T06:07:42;26.40;27.00
439;DHT22;206;48.782;9.252;2022-07-23T06:10:08;26.40;26.70
439;DHT22;206;48.782;9.252;2022-07-23T06:12:34;26.40;26.60
439;DHT22;206;48.782;9.252;2022-07-23T06:15:00;26.40;26.50
439;DHT22;206;48.782;9.252;2022-07-23T06:17:26;26.50;26.50
439;DHT22;206;48.782;9.252;2022-07-23T06:19:52;26.50;26.30
439;DHT22;206;48.782;9.252;2022-07-23T06:22:18;26.60;26.10
439;DHT22;206;48.782;9.252;2022-07-23T06:24:44;26.60;26.00
439;DHT22;206;48.782;9.252;2022-07-23T06:27:09;26.60;25.90
439;DHT22;206;48.782;9.252;2022-07-23T06:29:35;26.60;25.80
439;DHT22;206;48.782;9.252;2022-07-23T06:32:00;26.70;25.70
439;DHT22;206;48.782;9.252;2022-07-23T06:34:26;26.70;25.60
439;DHT22;206;48.782;9.252;2022-07-23T06:36:52;26.70;25.30
439;DHT22;206;48.782;9.252;2022-07-23T06:39:17;26.70;25.30
439;DHT22;206;48.782;9.252;2022-07-23T06:41:43;26.80;24.80
439;DHT22;206;48.782;9.252;2022-07-23T06:44:09;26.90;25.30
439;DHT22;206;48.782;9.252;2022-07-23T06:46:34;26.90;24.60
439;DHT22;206;48.782;9.252;2022-07-23T06:49:00;26.90;24.50
439;DHT22;206;48.782;9.252;2022-07-23T06:51:26;26.80;24.60
439;DHT22;206;48.782;9.252;2022-07-23T06:53:51;26.80;24.40
439;DHT22;206;48.782;9.252;2022-07-23T06:56:17;26.90;24.30
439;DHT22;206;48.782;9.252;2022-07-23T06:58:43;26.90;23.50
439;DHT22;206;48.782;9.252;2022-07-23T07:01:08;26.90;23.50
439;DHT22;206;48.782;9.252;2022-07-23T07:03:34;26.80;23.80
439;DHT22;206;48.782;9.252;2022-07-23T07:05:59;26.70;23.40
439;DHT22;206;48.782;9.252;2022-07-23T07:08:25;26.60;23.60
439;DHT22;206;48.782;9.252;2022-07-23T07:10:51;26.50;24.50
439;DHT22;206;48.782;9.252;2022-07-23T07:13:16;26.60;24.20
439;DHT22;206;48.782;9.252;2022-07-23T07:15:42;26.60;24.20
439;DHT22;206;48.782;9.252;2022-07-23T07:18:07;26.30;24.60
439;DHT22;206;48.782;9.252;2022-07-23T07:20:33;26.30;24.80
439;DHT22;206;48.782;9.252;2022-07-23T07:22:59;26.10;25.10
439;DHT22;206;48.782;9.252;2022-07-23T07:25:25;26.00;25.60
439;DHT22;206;48.782;9.252;2022-07-23T07:27:50;26.00;26.20
439;DHT22;206;48.782;9.252;2022-07-23T07:30:16;25.80;26.50
439;DHT22;206;48.782;9.252;2022-07-23T07:32:42;25.80;26.60
439;DHT22;206;48.782;9.252;2022-07-23T07:35:08;25.80;26.70
439;DHT22;206;48.782;9.252;2022-07-23T07:37:34;25.80;26.30
439;DHT22;206;48.782;9.252;2022-07-23T07:40:00;25.80;26.50
439;DHT22;206;48.782;9.252;2022-07-23T07:42:25;25.70;26.60
439;DHT22;206;48.782;9.252;2022-07-23T07:44:51;25.60;27.00
439;DHT22;206;48.782;9.252;2022-07-23T07:47:16;25.60;27.50
439;DHT22;206;48.782;9.252;2022-07-23T07:49:42;25.70;27.60
439;DHT22;206;48.782;9.252;2022-07-23T07:52:08;25.70;27.60
439;DHT22;206;48.782;9.252;2022-07-23T07:54:34;25.80;27.60
439;DHT22;206;48.782;9.252;2022-07-23T07:57:00;25.90;27.70
439;DHT22;206;48.782;9.252;2022-07-23T07:59:26;25.90;27.70
439;DHT22;206;48.782;9.252;2022-07-23T08:01:51;25.90;28.30
439;DHT22;206;48.782;9.252;2022-07-23T08:04:17;25.90;27.80
439;DHT22;206;48.782;9.252;2022-07-23T08:06:43;25.70;28.40
439;DHT22;206;48.782;9.252;2022-07-23T08:09:08;25.70;28.50
439;DHT22;206;48.782;9.252;2022-07-23T08:11:34;25.70;28.30
439;DHT22;206;48.782;9.252;2022-07-23T08:14:00;25.90;27.70
439;DHT22;206;48.782;9.252;2022-07-23T08:16:25;26.10;27.30
439;DHT22;206;48.782;9.252;2022-07-23T08:18:51;26.30;26.90
439;DHT22;206;48.782;9.252;2022-07-23T08:21:17;26.40;26.60
439;DHT22;206;48.782;9.252;2022-07-23T08:23:42;26.70;26.00
439;DHT22;206;48.782;9.252;2022-07-23T08:26:08;26.90;25.00
439;DHT22;206;48.782;9.252;2022-07-23T08:28:33;26.90;24.80
439;DHT22;206;48.782;9.252;2022-07-23T08:31:00;26.90;25.20
439;DHT22;206;48.782;9.252;2022-07-23T08:33:26;26.80;25.80
439;DHT22;206;48.782;9.252;2022-07-23T08:35:52;26.70;26.10
439;DHT22;206;48.782;9.252;2022-07-23T08:38:20;26.70;26.20
439;DHT22;206;48.782;9.252;2022-07-23T08:40:48;26.60;26.40
439;DHT22;206;48.782;9.252;2022-07-23T08:43:20;26.60;26.60
439;DHT22;206;48.782;9.252;2022-07-23T08:45:50;26.60;27.20
439;DHT22;206;48.782;9.252;2022-07-23T08:48:19;26.40;27.50
439;DHT22;206;48.782;9.252;2022-07-23T08:50:47;26.40;27.90
439;DHT22;206;48.782;9.252;2022-07-23T08:53:14;26.40;27.30
439;DHT22;206;48.782;9.252;2022-07-23T08:55:53;26.40;27.90
439;DHT22;206;48.782;9.252;2022-07-23T08:58:20;26.40;27.90
439;DHT22;206;48.782;9.252;2022-07-23T09:00:46;26.40;26.80
439;DHT22;206;48.782;9.252;2022-07-23T09:03:25;26.40;26.70
439;DHT22;206;48.782;9.252;2022-07-23T09:05:51;26.40;25.30
439;DHT22;206;48.782;9.252;2022-07-23T09:08:22;26.40;25.40
439;DHT22;206;48.782;9.252;2022-07-23T09:13:31;26.70;24.80
439;DHT22;206;48.782;9.252;2022-07-23T09:16:00;26.90;25.00
439;DHT22;206;48.782;9.252;2022-07-23T09:18:34;27.10;24.60
439;DHT22;206;48.782;9.252;2022-07-23T09:31:51;28.10;20.40
439;DHT22;206;48.782;9.252;2022-07-23T09:36:45;28.20;20.50
439;DHT22;206;48.782;9.252;2022-07-23T09:39:11;28.30;20.50
439;DHT22;206;48.782;9.252;2022-07-23T09:41:40;28.40;20.60
439;DHT22;206;48.782;9.252;2022-07-23T09:44:17;28.40;19.70
439;DHT22;206;48.782;9.252;2022-07-23T09:46:45;28.40;18.70
439;DHT22;206;48.782;9.252;2022-07-23T09:49:20;28.50;18.90
439;DHT22;206;48.782;9.252;2022-07-23T09:51:57;28.30;19.20
439;DHT22;206;48.782;9.252;2022-07-23T09:54:37;28.30;19.10
439;DHT22;206;48.782;9.252;2022-07-23T09:57:06;28.30;18.70
439;DHT22;206;48.782;9.252;2022-07-23T09:59:35;28.30;18.90
439;DHT22;206;48.782;9.252;2022-07-23T10:02:01;28.40;18.20
439;DHT22;206;48.782;9.252;2022-07-23T10:04:29;28.40;18.40
439;DHT22;206;48.782;9.252;2022-07-23T10:06:57;28.40;18.40
439;DHT22;206;48.782;9.252;2022-07-23T10:09:28;28.50;18.50
439;DHT22;206;48.782;9.252;2022-07-23T10:12:00;28.60;17.80
439;DHT22;206;48.782;9.252;2022-07-23T10:14:39;28.70;17.90
439;DHT22;206;48.782;9.252;2022-07-23T10:17:06;28.60;17.90
439;DHT22;206;48.782;9.252;2022-07-23T10:19:32;28.60;18.00
439;DHT22;206;48.782;9.252;2022-07-23T10:22:11;28.60;17.70
439;DHT22;206;48.782;9.252;2022-07-23T10:27:51;28.70;18.20
439;DHT22;206;48.782;9.252;2022-07-23T10:30:45;28.70;18.30
439;DHT22;206;48.782;9.252;2022-07-23T10:36:19;28.70;17.70
439;DHT22;206;48.782;9.252;2022-07-23T10:39:03;28.70;17.60
439;DHT22;206;48.782;9.252;2022-07-23T10:41:36;28.80;17.70
439;DHT22;206;48.782;9.252;2022-07-23T10:44:12;28.90;17.70
439;DHT22;206;48.782;9.252;2022-07-23T10:47:27;29.00;17.50
439;DHT22;206;48.782;9.252;2022-07-23T10:50:23;29.20;17.30
439;DHT22;206;48.782;9.252;2022-07-23T10:53:12;29.30;16.90
439;DHT22;206;48.782;9.252;2022-07-23T10:55:41;29.40;16.80
439;DHT22;206;48.782;9.252;2022-07-23T10:58:07;29.50;16.60
439;DHT22;206;48.782;9.252;2022-07-23T11:00:35;29.50;16.50
439;DHT22;206;48.782;9.252;2022-07-23T11:03:05;29.50;16.80
439;DHT22;206;48.782;9.252;2022-07-23T11:05:44;29.70;16.70
439;DHT22;206;48.782;9.252;2022-07-23T11:08:13;29.60;16.30
439;DHT22;206;48.782;9.252;2022-07-23T11:10:56;29.60;16.70
439;DHT22;206;48.782;9.252;2022-07-23T11:13:41;29.70;16.60
439;DHT22;206;48.782;9.252;2022-07-23T11:16:16;29.80;16.60
439;DHT22;206;48.782;9.252;2022-07-23T11:24:19;30.00;16.20
439;DHT22;206;48.782;9.252;2022-07-23T11:26:50;30.10;16.00
439;DHT22;206;48.782;9.252;2022-07-23T11:32:01;30.00;16.30
439;DHT22;206;48.782;9.252;2022-07-23T11:34:41;30.10;16.50
439;DHT22;206;48.782;9.252;2022-07-23T11:37:12;30.10;16.70
439;DHT22;206;48.782;9.252;2022-07-23T11:39:38;30.10;16.50
439;DHT22;206;48.782;9.252;2022-07-23T11:42:06;30.20;16.00
439;DHT22;206;48.782;9.252;2022-07-23T11:44:37;30.20;15.80
439;DHT22;206;48.782;9.252;2022-07-23T11:47:04;30.00;16.30
439;DHT22;206;48.782;9.252;2022-07-23T11:49:30;30.00;16.40
439;DHT22;206;48.782;9.252;2022-07-23T11:52:14;29.90;16.50
439;DHT22;206;48.782;9.252;2022-07-23T11:57:21;29.80;16.00
439;DHT22;206;48.782;9.252;2022-07-23T11:59:52;30.00;15.80
439;DHT22;206;48.782;9.252;2022-07-23T12:02:20;30.00;15.80
439;DHT22;206;48.782;9.252;2022-07-23T12:04:48;30.00;15.30
439;DHT22;206;48.782;9.252;2022-07-23T12:10:09;30.10;15.50
439;DHT22;206;48.782;9.252;2022-07-23T12:12:39;30.00;15.70
439;DHT22;206;48.782;9.252;2022-07-23T12:15:05;30.10;15.80
439;DHT22;206;48.782;9.252;2022-07-23T12:17:35;30.10;15.90
439;DHT22;206;48.782;9.252;2022-07-23T12:20:02;30.20;15.80
439;DHT22;206;48.782;9.252;2022-07-23T12:22:42;30.30;16.00
439;DHT22;206;48.782;9.252;2022-07-23T12:25:16;30.20;15.80
439;DHT22;206;48.782;9.252;2022-07-23T12:27:43;30.20;16.00
439;DHT22;206;48.782;9.252;2022-07-23T12:30:24;30.30;15.70
439;DHT22;206;48.782;9.252;2022-07-23T12:32:52;30.30;16.00
439;DHT22;206;48.782;9.252;2022-07-23T12:35:18;30.30;16.10
439;DHT22;206;48.782;9.252;2022-07-23T12:37:46;30.40;15.80
439;DHT22;206;48.782;9.252;2022-07-23T12:40:49;30.40;16.00
439;DHT22;206;48.782;9.252;2022-07-23T12:46:10;30.40;15.90
439;DHT22;206;48.782;9.252;2022-07-23T12:48:37;30.40;15.30
439;DHT22;206;48.782;9.252;2022-07-23T12:51:08;30.30;15.40
439;DHT22;206;48.782;9.252;2022-07-23T12:53:46;30.30;15.30
439;DHT22;206;48.782;9.252;2022-07-23T12:56:15;30.20;15.40
439;DHT22;206;48.782;9.252;2022-07-23T12:58:48;30.30;15.30
439;DHT22;206;48.782;9.252;2022-07-23T13:06:21;30.50;15.10
439;DHT22;206;48.782;9.252;2022-07-23T13:08:46;30.70;15.00
439;DHT22;206;48.782;9.252;2022-07-23T13:11:12;30.80;14.80
439;DHT22;206;48.782;9.252;2022-07-23T13:13:39;30.90;14.50
439;DHT22;206;48.782;9.252;2022-07-23T13:16:04;30.90;14.60
439;DHT22;206;48.782;9.252;2022-07-23T13:18:31;31.00;14.30
439;DHT22;206;48.782;9.252;2022-07-23T13:20:57;30.90;14.00
439;DHT22;206;48.782;9.252;2022-07-23T13:23:23;30.90;14.10
439;DHT22;206;48.782;9.252;2022-07-23T13:25:49;30.90;14.70
439;DHT22;206;48.782;9.252;2022-07-23T13:28:16;30.90;14.80
439;DHT22;206;48.782;9.252;2022-07-23T13:30:42;30.90;14.60
439;DHT22;206;48.782;9.252;2022-07-23T13:33:09;30.90;14.60
439;DHT22;206;48.782;9.252;2022-07-23T13:35:37;30.70;14.40
439;DHT22;206;48.782;9.252;2022-07-23T13:38:04;30.70;14.70
439;DHT22;206;48.782;9.252;2022-07-23T13:40:33;30.70;14.30
439;DHT22;206;48.782;9.252;2022-07-23T13:42:59;30.70;14.30
439;DHT22;206;48.782;9.252;2022-07-23T13:45:26;30.80;14.20
439;DHT22;206;48.782;9.252;2022-07-23T13:47:52;30.80;13.60
439;DHT22;206;48.782;9.252;2022-07-23T13:50:17;30.90;13.20
439;DHT22;206;48.782;9.252;2022-07-23T13:52:43;30.90;13.60
439;DHT22;206;48.782;9.252;2022-07-23T13:55:09;30.90;14.10
439;DHT22;206;48.782;9.252;2022-07-23T13:57:35;31.00;14.30
439;DHT22;206;48.782;9.252;2022-07-23T14:00:01;30.90;14.40
439;DHT22;206;48.782;9.252;2022-07-23T14:02:27;30.90;14.70
439;DHT22;206;48.782;9.252;2022-07-23T14:04:53;30.80;14.70
439;DHT22;206;48.782;9.252;2022-07-23T14:07:19;30.80;14.80
439;DHT22;206;48.782;9.252;2022-07-23T14:09:45;30.90;15.00
439;DHT22;206;48.782;9.252;2022-07-23T14:12:10;30.90;14.90
439;DHT22;206;48.782;9.252;2022-07-23T14:14:36;31.10;15.20
439;DHT22;206;48.782;9.252;2022-07-23T14:17:02;31.10;15.40
439;DHT22;206;48.782;9.252;2022-07-23T14:19:28;31.10;14.60
439;DHT22;206;48.782;9.252;2022-07-23T14:21:54;31.10;14.30
439;DHT22;206;48.782;9.252;2022-07-23T14:24:20;31.10;14.10
439;DHT22;206;48.782;9.252;2022-07-23T14:26:46;31.10;14.30
439;DHT22;206;48.782;9.252;2022-07-23T14:29:11;31.10;14.80
439;DHT22;206;48.782;9.252;2022-07-23T14:31:37;31.10;14.50
439;DHT22;206;48.782;9.252;2022-07-23T14:34:03;31.20;13.80
439;DHT22;206;48.782;9.252;2022-07-23T14:36:28;31.20;13.40
439;DHT22;206;48.782;9.252;2022-07-23T14:38:54;31.10;13.70
439;DHT22;206;48.782;9.252;2022-07-23T14:41:20;31.10;13.30
439;DHT22;206;48.782;9.252;2022-07-23T14:43:46;31.10;13.30
439;DHT22;206;48.782;9.252;2022-07-23T14:46:12;31.10;13.30
439;DHT22;206;48.782;9.252;2022-07-23T14:48:38;31.10;13.90
439;DHT22;206;48.782;9.252;2022-07-23T14:51:04;31.00;13.30
439;DHT22;206;48.782;9.252;2022-07-23T14:53:30;31.00;13.30
439;DHT22;206;48.782;9.252;2022-07-23T14:55:56;31.00;13.30
439;DHT22;206;48.782;9.252;2022-07-23T14:58:23;31.00;13.30
439;DHT22;206;48.782;9.252;2022-07-23T15:00:49;31.00;13.30
439;DHT22;206;48.782;9.252;2022-07-23T15:03:15;31.00;13.30
439;DHT22;206;48.782;9.252;2022-07-23T15:05:41;31.10;13.30
439;DHT22;206;48.782;9.252;2022-07-23T15:08:07;31.20;13.40
439;DHT22;206;48.782;9.252;2022-07-23T15:10:33;31.20;13.40
439;DHT22;206;48.782;9.252;2022-07-23T15:12:58;31.30;12.80
439;DHT22;206;48.782;9.252;2022-07-23T15:15:24;31.20;13.30
439;DHT22;206;48.782;9.252;2022-07-23T15:17:49;31.20;13.00
439;DHT22;206;48.782;9.252;2022-07-23T15:20:18;31.20;12.90
439;DHT22;206;48.782;9.252;2022-07-23T15:22:43;31.20;12.90
439;DHT22;206;48.782;9.252;2022-07-23T15:25:10;31.30;13.00
439;DHT22;206;48.782;9.252;2022-07-23T15:27:36;31.30;12.80
439;DHT22;206;48.782;9.252;2022-07-23T15:30:03;31.40;12.90
439;DHT22;206;48.782;9.252;2022-07-23T15:32:28;31.40;12.50
439;DHT22;206;48.782;9.252;2022-07-23T15:34:54;31.40;12.50
439;DHT22;206;48.782;9.252;2022-07-23T15:37:20;31.50;12.30
439;DHT22;206;48.782;9.252;2022-07-23T15:39:46;31.50;12.20
439;DHT22;206;48.782;9.252;2022-07-23T15:42:11;31.50;12.10
439;DHT22;206;48.782;9.252;2022-07-23T15:44:37;31.50;12.20
439;DHT22;206;48.782;9.252;2022-07-23T15:47:02;31.50;12.40
439;DHT22;206;48.782;9.252;2022-07-23T15:49:28;31.40;12.40
439;DHT22;206;48.782;9.252;2022-07-23T15:51:54;31.30;12.60
439;DHT22;206;48.782;9.252;2022-07-23T15:54:20;31.30;12.60
439;DHT22;206;48.782;9.252;2022-07-23T15:56:47;31.30;12.50
439;DHT22;206;48.782;9.252;2022-07-23T15:59:12;31.30;12.60
439;DHT22;206;48.782;9.252;2022-07-23T16:01:38;31.30;12.20
439;DHT22;206;48.782;9.252;2022-07-23T16:04:04;31.40;12.20
439;DHT22;206;48.782;9.252;2022-07-23T16:06:32;31.30;12.30
439;DHT22;206;48.782;9.252;2022-07-23T16:08:58;31.30;12.20
439;DHT22;206;48.782;9.252;2022-07-23T16:11:25;31.30;12.10
439;DHT22;206;48.782;9.252;2022-07-23T16:13:51;31.30;12.10
439;DHT22;206;48.782;9.252;2022-07-23T16:16:16;31.20;12.40
439;DHT22;206;48.782;9.252;2022-07-23T16:18:42;31.20;12.40
439;DHT22;206;48.782;9.252;2022-07-23T16:21:08;31.20;12.30
439;DHT22;206;48.782;9.252;2022-07-23T16:23:33;31.20;12.10
439;DHT22;206;48.782;9.252;2022-07-23T16:25:59;31.10;12.50
439;DHT22;206;48.782;9.252;2022-07-23T16:28:25;31.00;12.60
439;DHT22;206;48.782;9.252;2022-07-23T16:30:50;31.00;12.70
439;DHT22;206;48.782;9.252;2022-07-23T16:33:16;31.00;12.80
439;DHT22;206;48.782;9.252;2022-07-23T16:35:42;30.90;13.20
439;DHT22;206;48.782;9.252;2022-07-23T16:38:08;30.90;13.20
439;DHT22;206;48.782;9.252;2022-07-23T16:40:34;30.80;13.20
439;DHT22;206;48.782;9.252;2022-07-23T16:43:00;30.80;13.20
439;DHT22;206;48.782;9.252;2022-07-23T16:45:26;30.90;13.20
439;DHT22;206;48.782;9.252;2022-07-23T16:47:52;30.80;13.70
439;DHT22;206;48.782;9.252;2022-07-23T16:50:18;30.60;13.90
439;DHT22;206;48.782;9.252;2022-07-23T16:52:44;30.60;14.10
439;DHT22;206;48.782;9.252;2022-07-23T16:55:10;30.50;14.60
439;DHT22;206;48.782;9.252;2022-07-23T16:57:36;30.50;15.40
439;DHT22;206;48.782;9.252;2022-07-23T17:00:04;30.50;15.60
439;DHT22;206;48.782;9.252;2022-07-23T17:02:31;30.50;15.90
439;DHT22;206;48.782;9.252;2022-07-23T17:04:56;30.50;16.10
439;DHT22;206;48.782;9.252;2022-07-23T17:07:22;30.50;16.30
439;DHT22;206;48.782;9.252;2022-07-23T17:09:48;30.50;16.10
439;DHT22;206;48.782;9.252;2022-07-23T17:12:13;30.50;16.20
439;DHT22;206;48.782;9.252;2022-07-23T17:14:39;30.50;16.20
439;DHT22;206;48.782;9.252;2022-07-23T17:17:05;30.40;16.10
439;DHT22;206;48.782;9.252;2022-07-23T17:19:31;30.40;16.40